Time;durP1;ratioP1;P1;durP2;ratioP2;P2;SDS_P1;SDS_P2;PMS_P1;PMS_P2;Temp;Humidity;BMP_temperature;BMP_pressure;BME280_temperature;BME280_humidity;BME280_pressure;Samples;Min_cycle;Max_cycle;Signal;HPM_P1;HPM_P2
2023/11/05 00:00:10;;;;;;;3.73;1.70;;;;;;;;;;5153855;27;20442;-79
2023/11/05 00:02:39;;;;;;;3.47;1.53;;;;;;;;;;5149785;28;20453;-79
2023/11/05 00:05:08;;;;;;;2.40;1.20;;;;;;;;;;5152431;28;20452;-81
2023/11/05 00:07:39;;;;;;;3.00;1.37;;;;;;;;;;5155174;28;20480;-80
2023/11/05 00:10:09;;;;;;;4.70;1.80;;;;;;;;;;5153563;28;20492;-80
2023/11/05 00:12:37;;;;;;;2.60;1.40;;;;;;;;;;5150460;28;20721;-79
2023/11/05 00:15:05;;;;;;;3.00;1.20;;;;;;;;;;5147885;28;20446;-79
2023/11/05 00:17:33;;;;;;;2.60;1.00;;;;;;;;;;5147493;28;20460;-79
2023/11/05 00:20:09;;;;;;;2.93;1.17;;;;;;;;;;5145583;28;20450;-80
2023/11/05 00:22:37;;;;;;;2.60;1.30;;;;;;;;;;5147700;28;20485;-81
2023/11/05 00:25:05;;;;;;;4.20;1.07;;;;;;;;;;5147101;28;20456;-80
2023/11/05 00:27:33;;;;;;;3.77;1.50;;;;;;;;;;5147833;28;20525;-80
2023/11/05 00:30:08;;;;;;;3.20;1.23;;;;;;;;;;5146098;28;20505;-79
2023/11/05 00:32:35;;;;;;;4.27;1.67;;;;;;;;;;5146495;28;20891;-80
2023/11/05 00:35:04;;;;;;;2.60;1.10;;;;;;;;;;5147122;28;20541;-79
2023/11/05 00:37:32;;;;;;;2.50;1.03;;;;;;;;;;5149087;28;20469;-80
2023/11/05 00:39:59;;;;;;;4.17;1.00;;;;;;;;;;5151736;28;20482;-80
2023/11/05 00:42:27;;;;;;;2.83;1.17;;;;;;;;;;5153358;28;20838;-79
2023/11/05 00:44:55;;;;;;;4.83;1.20;;;;;;;;;;5151594;28;20509;-79
2023/11/05 00:47:22;;;;;;;2.87;1.40;;;;;;;;;;5147460;28;20757;-82
2023/11/05 00:49:50;;;;;;;2.93;1.30;;;;;;;;;;5148764;28;20592;-80
2023/11/05 00:52:25;;;;;;;2.47;1.03;;;;;;;;;;5157710;27;20449;-80
2023/11/05 00:54:53;;;;;;;3.87;1.30;;;;;;;;;;5156819;27;20468;-80
2023/11/05 00:57:20;;;;;;;4.10;1.10;;;;;;;;;;5150306;27;20445;-79
2023/11/05 00:59:47;;;;;;;2.87;1.20;;;;;;;;;;5154852;27;20442;-81
2023/11/05 01:02:16;;;;;;;2.50;1.23;;;;;;;;;;5156785;27;20486;-80
2023/11/05 01:04:45;;;;;;;5.40;1.37;;;;;;;;;;5149037;27;20450;-79
2023/11/05 01:07:12;;;;;;;2.83;1.33;;;;;;;;;;5151049;27;20460;-80
2023/11/05 01:09:41;;;;;;;2.53;1.10;;;;;;;;;;5156153;27;20719;-81
2023/11/05 01:12:12;;;;;;;2.80;1.23;;;;;;;;;;5153952;27;20525;-77
2023/11/05 01:14:40;;;;;;;2.97;1.20;;;;;;;;;;5149479;27;20509;-80
2023/11/05 01:17:12;;;;;;;2.70;0.93;;;;;;;;;;5155551;27;20479;-78
2023/11/05 01:19:39;;;;;;;5.27;1.27;;;;;;;;;;5150051;27;20520;-80
2023/11/05 01:22:08;;;;;;;3.03;1.03;;;;;;;;;;5157982;27;20529;-80
2023/11/05 01:24:36;;;;;;;2.83;1.20;;;;;;;;;;5157975;27;20460;-79
2023/11/05 01:27:05;;;;;;;2.90;0.90;;;;;;;;;;5152702;27;20467;-80
2023/11/05 01:29:33;;;;;;;4.00;1.30;;;;;;;;;;5149447;27;20523;-80
2023/11/05 01:32:01;;;;;;;2.40;0.80;;;;;;;;;;5157021;27;20454;-79
2023/11/05 01:34:29;;;;;;;3.97;1.40;;;;;;;;;;5157067;27;20450;-81
2023/11/05 01:36:59;;;;;;;2.50;1.07;;;;;;;;;;5132692;27;20430;-78
2023/11/05 01:39:27;;;;;;;2.60;1.13;;;;;;;;;;5148959;27;20446;-79
2023/11/05 01:41:54;;;;;;;3.50;1.07;;;;;;;;;;5149006;27;20464;-78
2023/11/05 01:44:23;;;;;;;6.43;1.70;;;;;;;;;;5149688;27;20840;-79
2023/11/05 01:46:55;;;;;;;3.83;1.27;;;;;;;;;;5154194;27;20426;-79
2023/11/05 01:49:22;;;;;;;3.27;1.77;;;;;;;;;;5157410;27;20477;-79
2023/11/05 01:51:50;;;;;;;3.20;1.20;;;;;;;;;;5148986;27;20996;-80
2023/11/05 01:54:27;;;;;;;9.30;1.37;;;;;;;;;;5152085;27;20438;-80
2023/11/05 01:56:55;;;;;;;3.03;1.50;;;;;;;;;;5149800;27;20463;-79
2023/11/05 01:59:24;;;;;;;3.20;1.50;;;;;;;;;;5150117;27;20472;-79
2023/11/05 02:01:55;;;;;;;4.10;1.50;;;;;;;;;;5152799;27;20453;-79
2023/11/05 02:04:24;;;;;;;4.60;1.47;;;;;;;;;;5149530;27;20514;-80
2023/11/05 02:06:53;;;;;;;3.53;1.67;;;;;;;;;;5152826;27;20465;-80
2023/11/05 02:09:21;;;;;;;3.73;1.60;;;;;;;;;;5154065;27;20529;-80
2023/11/05 02:11:49;;;;;;;4.23;1.60;;;;;;;;;;5150019;27;20453;-78
2023/11/05 02:14:20;;;;;;;3.20;1.40;;;;;;;;;;5156147;27;20445;-80
2023/11/05 02:16:49;;;;;;;4.40;1.70;;;;;;;;;;5156439;27;20844;-80
2023/11/05 02:19:16;;;;;;;4.37;1.47;;;;;;;;;;5154074;27;20449;-80
2023/11/05 02:21:45;;;;;;;4.40;1.87;;;;;;;;;;5153283;27;20458;-80
2023/11/05 02:24:14;;;;;;;3.90;1.47;;;;;;;;;;5149416;27;20453;-79
2023/11/05 02:26:41;;;;;;;3.73;1.40;;;;;;;;;;5150816;27;20477;-80
2023/11/05 02:29:09;;;;;;;3.00;1.30;;;;;;;;;;5148755;27;20904;-79
2023/11/05 02:31:37;;;;;;;4.30;1.60;;;;;;;;;;5155531;27;20457;-80
2023/11/05 02:34:05;;;;;;;2.70;1.27;;;;;;;;;;5152711;27;20441;-80
2023/11/05 02:36:32;;;;;;;3.70;1.30;;;;;;;;;;5154021;27;20450;-80
2023/11/05 02:39:05;;;;;;;3.03;1.70;;;;;;;;;;5154286;27;20441;-80
2023/11/05 02:41:35;;;;;;;3.40;1.20;;;;;;;;;;5153548;27;20454;-80
2023/11/05 02:44:02;;;;;;;2.20;0.90;;;;;;;;;;5152935;27;20454;-81
2023/11/05 02:46:30;;;;;;;5.17;1.60;;;;;;;;;;5156081;27;20414;-81
2023/11/05 02:48:57;;;;;;;4.27;1.40;;;;;;;;;;5151158;27;20458;-80
2023/11/05 02:51:25;;;;;;;3.83;1.43;;;;;;;;;;5151893;27;20446;-80
2023/11/05 02:53:52;;;;;;;3.60;1.50;;;;;;;;;;5153120;27;20449;-81
2023/11/05 02:56:20;;;;;;;2.50;1.20;;;;;;;;;;5153609;27;20906;-81
2023/11/05 02:58:52;;;;;;;2.90;1.10;;;;;;;;;;5152179;27;20450;-81
2023/11/05 03:01:23;;;;;;;2.60;1.07;;;;;;;;;;5151905;27;20813;-81
2023/11/05 03:03:51;;;;;;;2.90;1.40;;;;;;;;;;5148643;27;20462;-80
2023/11/05 03:06:19;;;;;;;4.73;1.63;;;;;;;;;;5154191;27;20454;-81
2023/11/05 03:08:47;;;;;;;4.73;1.43;;;;;;;;;;5154662;27;20450;-81
2023/11/05 03:11:15;;;;;;;4.10;1.43;;;;;;;;;;5154384;27;20481;-80
2023/11/05 03:13:42;;;;;;;4.50;1.40;;;;;;;;;;5154023;27;20482;-79
2023/11/05 03:16:12;;;;;;;2.90;1.17;;;;;;;;;;5157410;27;20453;-79
2023/11/05 03:18:40;;;;;;;4.27;2.07;;;;;;;;;;5152693;27;20842;-80
2023/11/05 03:21:09;;;;;;;4.20;1.23;;;;;;;;;;5148803;27;20457;-79
2023/11/05 03:23:36;;;;;;;3.30;1.07;;;;;;;;;;5152286;27;20587;-79
2023/11/05 03:26:04;;;;;;;3.10;1.03;;;;;;;;;;5136897;27;20480;-80
2023/11/05 03:28:32;;;;;;;3.90;1.37;;;;;;;;;;5108741;28;20476;-80
2023/11/05 03:30:59;;;;;;;4.00;1.10;;;;;;;;;;5113193;28;20543;-77
2023/11/05 03:33:28;;;;;;;3.17;1.30;;;;;;;;;;5114815;28;20450;-82
2023/11/05 03:35:56;;;;;;;2.70;1.07;;;;;;;;;;5115470;28;20444;-81
2023/11/05 03:38:24;;;;;;;4.20;1.57;;;;;;;;;;5111575;28;20455;-80
2023/11/05 03:40:51;;;;;;;4.00;1.40;;;;;;;;;;5112284;28;20462;-80
2023/11/05 03:43:19;;;;;;;4.27;2.83;;;;;;;;;;5113650;28;20435;-81
2023/11/05 03:45:46;;;;;;;7.30;1.33;;;;;;;;;;5114699;28;20424;-82
2023/11/05 03:48:13;;;;;;;2.90;1.23;;;;;;;;;;5116365;28;20500;-81
2023/11/05 03:50:43;;;;;;;3.50;1.30;;;;;;;;;;5108135;28;20491;-80
2023/11/05 03:53:10;;;;;;;2.70;0.97;;;;;;;;;;5115693;28;20440;-81
2023/11/05 03:55:38;;;;;;;2.53;1.20;;;;;;;;;;5116225;28;20431;-80
2023/11/05 03:58:07;;;;;;;3.90;1.03;;;;;;;;;;5111826;28;20459;-78
2023/11/05 04:00:36;;;;;;;3.40;1.20;;;;;;;;;;5113787;28;20452;-79
2023/11/05 04:03:04;;;;;;;3.13;0.90;;;;;;;;;;5113104;28;20489;-79
2023/11/05 04:05:31;;;;;;;2.57;1.07;;;;;;;;;;5109279;28;20723;-80
2023/11/05 04:08:00;;;;;;;2.30;1.07;;;;;;;;;;5108057;28;20444;-80
2023/11/05 04:10:28;;;;;;;6.47;1.47;;;;;;;;;;5108854;28;20467;-80
2023/11/05 04:12:55;;;;;;;2.40;0.80;;;;;;;;;;5109972;28;20546;-80
2023/11/05 04:15:23;;;;;;;3.70;1.00;;;;;;;;;;5111952;28;20455;-79
2023/11/05 04:17:50;;;;;;;2.87;1.00;;;;;;;;;;5107781;28;20447;-79
2023/11/05 04:20:18;;;;;;;5.83;1.20;;;;;;;;;;5109983;28;20526;-81
2023/11/05 04:22:46;;;;;;;6.70;1.20;;;;;;;;;;5110967;28;20491;-79
2023/11/05 04:25:15;;;;;;;4.47;1.40;;;;;;;;;;5112020;28;20507;-80
2023/11/05 04:27:42;;;;;;;3.13;1.10;;;;;;;;;;5110244;28;20486;-81
2023/11/05 04:30:10;;;;;;;3.43;1.77;;;;;;;;;;5114774;28;20466;-79
2023/11/05 04:32:38;;;;;;;4.00;1.40;;;;;;;;;;5112507;28;20455;-80
2023/11/05 04:35:06;;;;;;;2.73;1.30;;;;;;;;;;5113109;28;20470;-80
2023/11/05 04:37:33;;;;;;;2.20;1.00;;;;;;;;;;5116067;28;20486;-81
2023/11/05 04:40:04;;;;;;;3.40;1.10;;;;;;;;;;5116068;28;20745;-80
2023/11/05 04:42:34;;;;;;;4.33;1.20;;;;;;;;;;5112342;28;20433;-80
2023/11/05 04:45:10;;;;;;;3.50;1.30;;;;;;;;;;5114755;28;20432;-79
2023/11/05 04:47:37;;;;;;;3.60;1.20;;;;;;;;;;5115005;28;20523;-79
2023/11/05 04:50:09;;;;;;;2.43;1.20;;;;;;;;;;5115638;28;20463;-79
2023/11/05 04:52:37;;;;;;;4.10;1.27;;;;;;;;;;5111239;28;20443;-81
2023/11/05 04:55:05;;;;;;;3.13;1.70;;;;;;;;;;5110391;28;20461;-81
2023/11/05 04:57:34;;;;;;;3.07;1.50;;;;;;;;;;5108402;28;20482;-81
2023/11/05 05:00:09;;;;;;;5.30;1.77;;;;;;;;;;5113034;28;20824;-81
2023/11/05 05:02:37;;;;;;;3.90;1.20;;;;;;;;;;5113258;28;20459;-79
2023/11/05 05:05:04;;;;;;;4.60;1.77;;;;;;;;;;5111495;28;20528;-81
2023/11/05 05:07:32;;;;;;;2.87;1.37;;;;;;;;;;5110846;28;20542;-81
2023/11/05 05:09:59;;;;;;;3.03;1.37;;;;;;;;;;5109530;28;20479;-81
2023/11/05 05:12:28;;;;;;;2.63;1.50;;;;;;;;;;5114178;28;20443;-81
2023/11/05 05:14:57;;;;;;;8.00;1.83;;;;;;;;;;5114382;28;20451;-81
2023/11/05 05:17:24;;;;;;;4.60;1.87;;;;;;;;;;5114928;28;20531;-81
2023/11/05 05:19:52;;;;;;;6.73;1.50;;;;;;;;;;5116182;28;20489;-80
2023/11/05 05:22:19;;;;;;;5.40;1.70;;;;;;;;;;5111721;28;20882;-79
2023/11/05 05:24:47;;;;;;;3.90;1.77;;;;;;;;;;5109874;28;20786;-80
2023/11/05 05:27:14;;;;;;;4.70;1.53;;;;;;;;;;5107669;28;20566;-80
2023/11/05 05:29:42;;;;;;;3.80;1.70;;;;;;;;;;5107224;28;20451;-78
2023/11/05 05:32:11;;;;;;;4.20;1.90;;;;;;;;;;5114729;28;20451;-81
2023/11/05 05:34:38;;;;;;;4.47;2.20;;;;;;;;;;5113657;28;20827;-81
2023/11/05 05:37:07;;;;;;;3.57;1.33;;;;;;;;;;5111679;28;20482;-81
2023/11/05 05:39:35;;;;;;;3.90;1.70;;;;;;;;;;5113094;28;20448;-80
2023/11/05 05:42:05;;;;;;;4.30;1.50;;;;;;;;;;5110783;28;20446;-80
2023/11/05 05:44:33;;;;;;;7.00;1.50;;;;;;;;;;5109273;28;20526;-81
2023/11/05 05:47:03;;;;;;;4.60;1.77;;;;;;;;;;5109585;28;20539;-79
2023/11/05 05:49:32;;;;;;;3.80;1.20;;;;;;;;;;5114725;28;20451;-80
2023/11/05 05:52:00;;;;;;;5.30;1.67;;;;;;;;;;5114801;28;20478;-81
2023/11/05 05:54:27;;;;;;;2.87;1.30;;;;;;;;;;5115085;28;20448;-81
2023/11/05 05:56:55;;;;;;;3.47;1.30;;;;;;;;;;5115777;28;20454;-81
2023/11/05 05:59:25;;;;;;;3.03;1.50;;;;;;;;;;5115806;28;20439;-79
2023/11/05 06:01:53;;;;;;;4.30;1.63;;;;;;;;;;5112611;28;20462;-80
2023/11/05 06:04:22;;;;;;;6.97;1.87;;;;;;;;;;5109096;28;20457;-80
2023/11/05 06:06:51;;;;;;;5.70;1.57;;;;;;;;;;5108079;28;20446;-80
2023/11/05 06:09:22;;;;;;;3.50;1.80;;;;;;;;;;5107872;28;20451;-80
2023/11/05 06:11:49;;;;;;;3.50;1.20;;;;;;;;;;5108372;28;20550;-80
2023/11/05 06:14:17;;;;;;;5.70;1.40;;;;;;;;;;5107591;28;20490;-81
2023/11/05 06:16:44;;;;;;;6.50;1.47;;;;;;;;;;5105864;28;20924;-81
2023/11/05 06:19:12;;;;;;;5.50;1.73;;;;;;;;;;5105384;28;20448;-79
2023/11/05 06:21:39;;;;;;;5.70;1.87;;;;;;;;;;5106386;28;20895;-80
2023/11/05 06:24:09;;;;;;;3.93;1.80;;;;;;;;;;5106177;28;20855;-81
2023/11/05 06:26:37;;;;;;;3.80;1.33;;;;;;;;;;5105254;28;20490;-80
2023/11/05 06:29:05;;;;;;;3.97;1.20;;;;;;;;;;5108933;28;20470;-81
2023/11/05 06:31:33;;;;;;;4.73;1.60;;;;;;;;;;5112246;28;20527;-81
2023/11/05 06:34:00;;;;;;;5.03;1.90;;;;;;;;;;5094407;28;20470;-81
2023/11/05 06:36:28;;;;;;;4.47;1.67;;;;;;;;;;5111916;28;20451;-80
2023/11/05 06:38:55;;;;;;;7.47;1.47;;;;;;;;;;5112904;28;20459;-81
2023/11/05 06:41:25;;;;;;;2.90;1.27;;;;;;;;;;5112267;28;20455;-81
2023/11/05 06:43:52;;;;;;;5.30;1.73;;;;;;;;;;5113025;28;20546;-79
2023/11/05 06:46:20;;;;;;;3.60;1.23;;;;;;;;;;5110901;28;20443;-81
2023/11/05 06:48:47;;;;;;;3.27;1.40;;;;;;;;;;5110955;28;20452;-82
2023/11/05 06:51:17;;;;;;;4.10;1.00;;;;;;;;;;5110879;28;20487;-80
2023/11/05 06:53:45;;;;;;;2.80;1.70;;;;;;;;;;5112719;28;20460;-80
2023/11/05 06:56:13;;;;;;;3.30;1.50;;;;;;;;;;5115132;28;20436;-80
2023/11/05 06:58:42;;;;;;;4.40;1.30;;;;;;;;;;5115867;28;20460;-80
2023/11/05 07:01:12;;;;;;;4.77;1.37;;;;;;;;;;5115830;28;20440;-78
2023/11/05 07:03:40;;;;;;;2.63;1.10;;;;;;;;;;5098086;28;20517;-80
2023/11/05 07:06:09;;;;;;;10.83;1.40;;;;;;;;;;5095433;28;20456;-80
2023/11/05 07:08:37;;;;;;;3.07;1.20;;;;;;;;;;5094905;28;20447;-79
2023/11/05 07:11:05;;;;;;;7.07;1.67;;;;;;;;;;5094884;28;20484;-81
2023/11/05 07:13:33;;;;;;;2.70;1.10;;;;;;;;;;5090215;28;20463;-81
2023/11/05 07:16:02;;;;;;;3.90;1.20;;;;;;;;;;5090129;28;20453;-77
2023/11/05 07:18:29;;;;;;;5.13;1.10;;;;;;;;;;5088469;28;20454;-79
2023/11/05 07:20:57;;;;;;;4.80;1.70;;;;;;;;;;5088393;28;20467;-80
2023/11/05 07:23:25;;;;;;;5.97;1.67;;;;;;;;;;5090870;28;20467;-80
2023/11/05 07:25:54;;;;;;;3.07;1.20;;;;;;;;;;5089622;28;20464;-80
2023/11/05 07:28:22;;;;;;;6.30;2.57;;;;;;;;;;5070533;28;20480;-82
2023/11/05 07:30:50;;;;;;;6.40;1.60;;;;;;;;;;5070834;28;20562;-81
2023/11/05 07:33:29;;;;;;;;;;;;;;;;;;;;;
2023/11/05 07:35:59;;;;;;;7.10;1.50;;;;;;;;;;5070720;28;20480;-80
2023/11/05 07:38:27;;;;;;;5.20;1.27;;;;;;;;;;5071881;28;20441;-80
2023/11/05 07:40:56;;;;;;;6.67;1.70;;;;;;;;;;5070301;28;20453;-81
2023/11/05 07:43:23;;;;;;;3.40;1.40;;;;;;;;;;5064456;28;20826;-82
2023/11/05 07:45:50;;;;;;;4.10;1.60;;;;;;;;;;5067799;28;20484;-81
2023/11/05 07:48:19;;;;;;;5.23;1.60;;;;;;;;;;5073307;28;20524;-81
2023/11/05 07:50:48;;;;;;;5.47;1.90;;;;;;;;;;5073867;28;20489;-81
2023/11/05 07:53:16;;;;;;;3.80;1.33;;;;;;;;;;5071814;28;20458;-81
2023/11/05 07:55:46;;;;;;;3.77;2.03;;;;;;;;;;5075982;28;20464;-80
2023/11/05 07:58:14;;;;;;;11.20;2.17;;;;;;;;;;5077051;28;20434;-78
2023/11/05 08:00:46;;;;;;;4.60;1.60;;;;;;;;;;5072921;28;20593;-79
2023/11/05 08:03:15;;;;;;;3.53;1.77;;;;;;;;;;5076419;28;20504;-81
2023/11/05 08:05:45;;;;;;;8.80;1.83;;;;;;;;;;5075954;28;20449;-80
2023/11/05 08:08:12;;;;;;;7.83;1.97;;;;;;;;;;5075564;28;20453;-80
2023/11/05 08:10:43;;;;;;;4.47;1.30;;;;;;;;;;5066781;28;20559;-81
2023/11/05 08:13:14;;;;;;;7.93;1.40;;;;;;;;;;5075061;28;20445;-79
2023/11/05 08:15:43;;;;;;;9.23;1.50;;;;;;;;;;5073407;28;20725;-80
2023/11/05 08:18:10;;;;;;;3.87;1.30;;;;;;;;;;5067601;28;20445;-82
2023/11/05 08:20:38;;;;;;;4.30;1.40;;;;;;;;;;5071188;28;20449;-80
2023/11/05 08:23:08;;;;;;;4.30;1.60;;;;;;;;;;5062690;28;20449;-81
2023/11/05 08:25:36;;;;;;;3.40;1.30;;;;;;;;;;5073000;28;20434;-80
2023/11/05 08:28:04;;;;;;;6.17;1.70;;;;;;;;;;5073757;28;20516;-81
2023/11/05 08:30:35;;;;;;;5.17;1.40;;;;;;;;;;5073978;28;20453;-81
2023/11/05 08:33:03;;;;;;;4.47;1.67;;;;;;;;;;5073642;28;20933;-80
2023/11/05 08:35:31;;;;;;;4.17;1.83;;;;;;;;;;5071062;28;20513;-80
2023/11/05 08:38:02;;;;;;;5.07;2.47;;;;;;;;;;5071718;28;20471;-81
2023/11/05 08:40:32;;;;;;;6.93;2.20;;;;;;;;;;5073511;28;20452;-81
2023/11/05 08:43:11;;;;;;;9.70;3.60;;;;;;;;;;5074701;28;20460;-79
2023/11/05 08:45:39;;;;;;;6.70;3.70;;;;;;;;;;5073273;28;20433;-79
2023/11/05 08:48:07;;;;;;;8.80;3.57;;;;;;;;;;5075142;28;20469;-80
2023/11/05 08:50:37;;;;;;;6.43;3.53;;;;;;;;;;5070632;28;20445;-81
2023/11/05 08:53:05;;;;;;;5.70;2.90;;;;;;;;;;5063091;28;20497;-80
2023/11/05 08:55:36;;;;;;;7.03;2.40;;;;;;;;;;5063842;28;20477;-79
2023/11/05 08:58:04;;;;;;;6.87;2.60;;;;;;;;;;5065382;28;20463;-80
2023/11/05 09:00:36;;;;;;;7.20;2.50;;;;;;;;;;5073943;28;20461;-80
2023/11/05 09:03:06;;;;;;;4.60;1.70;;;;;;;;;;5073082;28;20461;-79
2023/11/05 09:05:34;;;;;;;6.37;1.57;;;;;;;;;;5074031;28;20714;-83
2023/11/05 09:08:03;;;;;;;3.40;1.40;;;;;;;;;;5074169;28;20457;-80
2023/11/05 09:10:32;;;;;;;4.40;1.87;;;;;;;;;;5072629;28;20438;-78
2023/11/05 09:13:01;;;;;;;4.23;1.50;;;;;;;;;;5065361;28;20493;-80
2023/11/05 09:15:29;;;;;;;6.30;1.97;;;;;;;;;;5063112;28;20489;-81
2023/11/05 09:17:57;;;;;;;8.37;2.30;;;;;;;;;;5064595;28;20472;-81
2023/11/05 09:20:25;;;;;;;4.20;1.50;;;;;;;;;;5065403;28;20441;-80
2023/11/05 09:22:53;;;;;;;3.70;1.57;;;;;;;;;;5076584;28;20458;-81
2023/11/05 09:25:27;;;;;;;5.27;1.93;;;;;;;;;;5090615;28;20487;-79
2023/11/05 09:28:14;;;;;;;9.73;2.00;;;;;;;;;;5119214;28;20489;-80
2023/11/05 09:33:48;;;;;;;3.43;1.67;;;;;;;;;;5337611;22;20485;-75
2023/11/05 09:36:15;;;;;;;5.83;2.40;;;;;;;;;;5132266;27;20515;-75
2023/11/05 09:38:49;;;;;;;4.43;1.80;;;;;;;;;;5133326;27;20453;-76
2023/11/05 09:41:19;;;;;;;5.07;2.37;;;;;;;;;;5136262;27;20530;-77
2023/11/05 09:43:55;;;;;;;7.97;2.73;;;;;;;;;;5139524;27;20450;-76
2023/11/05 09:46:26;;;;;;;3.97;2.27;;;;;;;;;;5138229;27;20463;-77
2023/11/05 09:48:56;;;;;;;6.20;2.53;;;;;;;;;;5138782;27;20744;-76
2023/11/05 09:51:25;;;;;;;9.50;2.50;;;;;;;;;;5138828;27;20465;-76
2023/11/05 09:53:53;;;;;;;6.23;2.70;;;;;;;;;;5121229;27;20438;-75
2023/11/05 09:56:24;;;;;;;4.70;2.33;;;;;;;;;;5131798;27;20489;-75
2023/11/05 09:59:18;;;;;;;3.93;2.20;;;;;;;;;;5123574;27;20473;-75
2023/11/05 10:01:56;;;;;;;5.47;2.70;;;;;;;;;;5098444;28;20439;-76
2023/11/05 10:04:50;;;;;;;4.20;2.57;;;;;;;;;;5115284;28;20482;-75
2023/11/05 10:18:13;;;;;;;6.80;2.60;;;;;;;;;;5088023;28;20460;-74
2023/11/05 10:20:54;;;;;;;7.00;2.53;;;;;;;;;;5096925;28;20562;-74
2023/11/05 10:23:54;;;;;;;5.43;2.13;;;;;;;;;;5096188;28;20428;-75
2023/11/05 10:27:06;;;;;;;6.47;2.80;;;;;;;;;;5025804;28;20472;-75
2023/11/05 10:29:37;;;;;;;4.33;2.40;;;;;;;;;;5022640;28;20461;-75
2023/11/05 10:35:34;;;;;;;6.43;2.07;;;;;;;;;;4963260;28;20897;-76
2023/11/05 10:38:36;;;;;;;6.40;2.50;;;;;;;;;;5033833;28;20949;-74
2023/11/05 10:41:34;;;;;;;6.30;1.90;;;;;;;;;;5026665;28;20462;-75
2023/11/05 10:47:40;;;;;;;6.00;1.87;;;;;;;;;;5016522;28;20474;-77
2023/11/05 10:50:34;;;;;;;8.17;2.93;;;;;;;;;;5027722;28;20480;-78
2023/11/05 10:53:10;;;;;;;5.83;1.83;;;;;;;;;;5039177;28;20489;-76
2023/11/05 10:55:51;;;;;;;7.83;2.03;;;;;;;;;;5074820;28;20883;-76
2023/11/05 11:09:59;;;;;;;2.83;0.90;;;;;;;;;;5081401;28;20570;-74
2023/11/05 11:12:35;;;;;;;3.90;1.30;;;;;;;;;;5095334;28;20484;-76
2023/11/05 11:15:08;;;;;;;5.70;1.17;;;;;;;;;;5093108;28;20479;-76
2023/11/05 11:17:58;;;;;;;7.43;1.67;;;;;;;;;;5092824;28;20455;-76
2023/11/05 11:20:41;;;;;;;5.93;2.53;;;;;;;;;;5073684;28;20437;-76
2023/11/05 11:24:07;;;;;;;3.87;1.70;;;;;;;;;;5073094;28;20868;-77
2023/11/05 11:27:08;;;;;;;;;;;;;;;;;;;;;
2023/11/05 11:29:37;;;;;;;6.67;2.27;;;;;;;;;;5054715;28;20520;-76
2023/11/05 11:32:05;;;;;;;4.57;1.90;;;;;;;;;;5071146;28;20677;-75
2023/11/05 11:37:29;;;;;;;4.73;2.20;;;;;;;;;;5072155;28;20647;-76
2023/11/05 11:40:21;;;;;;;3.17;1.40;;;;;;;;;;5070420;28;20750;-77
2023/11/05 11:42:53;;;;;;;5.67;2.33;;;;;;;;;;5070748;28;20460;-75
2023/11/05 11:45:47;;;;;;;5.10;2.50;;;;;;;;;;5077950;28;20483;-75
2023/11/05 11:51:23;;;;;;;4.13;1.57;;;;;;;;;;5075019;28;20451;-76
2023/11/05 11:53:53;;;;;;;3.93;1.50;;;;;;;;;;5091445;28;20825;-75
2023/11/05 11:56:24;;;;;;;4.37;1.20;;;;;;;;;;5092167;28;20464;-76
2023/11/05 11:58:57;;;;;;;4.90;1.83;;;;;;;;;;5077686;28;20760;-77
2023/11/05 12:04:30;;;;;;;3.63;1.13;;;;;;;;;;5043058;28;20441;-77
2023/11/05 12:10:19;;;;;;;5.00;2.00;;;;;;;;;;4987904;28;21033;-76
2023/11/05 12:16:16;;;;;;;4.80;2.00;;;;;;;;;;4951824;29;20464;-75
2023/11/05 12:21:42;;;;;;;3.77;1.83;;;;;;;;;;5100776;28;20890;-75
2023/11/05 12:24:32;;;;;;;4.63;1.90;;;;;;;;;;5104052;28;20513;-76
2023/11/05 12:32:53;;;;;;;2.60;0.90;;;;;;;;;;5100650;28;20485;-75
2023/11/05 12:38:31;;;;;;;2.83;0.97;;;;;;;;;;5104512;28;20516;-76
2023/11/05 12:46:05;;;;;;;4.57;1.23;;;;;;;;;;5079506;28;20488;-81
2023/11/05 12:48:32;;;;;;;3.73;1.80;;;;;;;;;;5085338;28;20517;-81
2023/11/05 12:51:08;;;;;;;2.73;1.00;;;;;;;;;;5087485;28;20455;-80
2023/11/05 12:53:36;;;;;;;4.23;1.77;;;;;;;;;;5086937;28;20471;-79
2023/11/05 12:56:13;;;;;;;3.33;1.27;;;;;;;;;;5087790;28;20444;-79
2023/11/05 12:58:43;;;;;;;3.53;1.80;;;;;;;;;;5088630;28;20549;-78
2023/11/05 13:01:13;;;;;;;4.90;1.43;;;;;;;;;;5088181;28;20856;-80
2023/11/05 13:03:42;;;;;;;7.50;4.30;;;;;;;;;;5084961;28;20782;-79
2023/11/05 13:06:09;;;;;;;3.43;1.10;;;;;;;;;;5085780;28;20449;-80
2023/11/05 13:08:38;;;;;;;6.17;2.40;;;;;;;;;;5085572;28;20457;-79
2023/11/05 13:11:06;;;;;;;12.83;6.83;;;;;;;;;;5088416;28;20901;-80
2023/11/05 13:13:38;;;;;;;2.90;0.80;;;;;;;;;;5086992;28;20480;-79
2023/11/05 13:16:11;;;;;;;3.20;1.17;;;;;;;;;;5088061;28;20456;-78
2023/11/05 13:18:40;;;;;;;3.50;1.43;;;;;;;;;;5087316;28;20456;-79
2023/11/05 13:21:08;;;;;;;6.20;2.20;;;;;;;;;;5088045;28;20449;-81
2023/11/05 13:23:40;;;;;;;2.40;1.00;;;;;;;;;;5079482;28;20468;-79
2023/11/05 13:26:12;;;;;;;3.10;1.20;;;;;;;;;;5065068;28;20496;-80
2023/11/05 13:28:47;;;;;;;4.00;1.60;;;;;;;;;;5064735;28;20564;-79
2023/11/05 13:31:19;;;;;;;5.10;1.87;;;;;;;;;;5066328;28;20983;-79
2023/11/05 13:33:51;;;;;;;4.90;1.77;;;;;;;;;;5067570;28;20505;-80
2023/11/05 13:36:18;;;;;;;4.13;1.70;;;;;;;;;;5066847;28;20453;-79
2023/11/05 13:38:47;;;;;;;3.73;1.33;;;;;;;;;;5064439;28;20492;-80
2023/11/05 13:41:15;;;;;;;2.70;0.97;;;;;;;;;;5064348;28;20469;-80
2023/11/05 13:43:42;;;;;;;2.30;1.07;;;;;;;;;;5063354;28;20442;-81
2023/11/05 13:46:10;;;;;;;2.93;1.47;;;;;;;;;;5082301;28;20555;-81
2023/11/05 13:48:37;;;;;;;2.70;1.27;;;;;;;;;;5084424;28;20464;-81
2023/11/05 13:51:08;;;;;;;3.13;1.10;;;;;;;;;;5082301;28;20539;-80
2023/11/05 13:53:35;;;;;;;3.90;2.20;;;;;;;;;;5083215;28;20484;-79
2023/11/05 13:56:04;;;;;;;3.33;1.87;;;;;;;;;;5084254;28;20444;-80
2023/11/05 13:58:33;;;;;;;3.30;1.13;;;;;;;;;;5085666;28;20452;-80
2023/11/05 14:01:01;;;;;;;3.53;1.20;;;;;;;;;;5105742;28;20489;-79
2023/11/05 14:03:28;;;;;;;2.60;1.10;;;;;;;;;;5101795;28;20757;-80
2023/11/05 14:05:56;;;;;;;2.43;1.17;;;;;;;;;;5102416;28;20435;-79
2023/11/05 14:08:26;;;;;;;3.17;1.20;;;;;;;;;;5102171;28;20444;-80
2023/11/05 14:10:55;;;;;;;2.90;1.20;;;;;;;;;;5101798;28;20428;-78
2023/11/05 14:13:23;;;;;;;6.90;3.10;;;;;;;;;;5099517;28;20977;-80
2023/11/05 14:15:51;;;;;;;2.60;1.07;;;;;;;;;;5100049;28;20792;-80
2023/11/05 14:18:18;;;;;;;3.37;1.27;;;;;;;;;;5098237;28;20502;-80
2023/11/05 14:20:46;;;;;;;3.07;1.37;;;;;;;;;;5098650;28;20464;-81
2023/11/05 14:23:13;;;;;;;2.60;1.17;;;;;;;;;;5101274;28;20505;-81
2023/11/05 14:25:43;;;;;;;3.33;1.33;;;;;;;;;;5103614;28;20480;-80
2023/11/05 14:28:11;;;;;;;2.70;1.30;;;;;;;;;;5105920;28;20450;-79
2023/11/05 14:30:44;;;;;;;3.33;1.60;;;;;;;;;;5105665;28;20455;-79
2023/11/05 14:33:12;;;;;;;3.10;1.40;;;;;;;;;;5107273;28;20471;-80
2023/11/05 14:35:40;;;;;;;3.10;1.20;;;;;;;;;;5103808;28;20536;-80
2023/11/05 14:38:11;;;;;;;3.47;1.50;;;;;;;;;;5106667;28;20451;-82
2023/11/05 14:40:40;;;;;;;3.47;1.30;;;;;;;;;;5108575;28;20497;-78
2023/11/05 14:43:10;;;;;;;2.53;0.97;;;;;;;;;;5106700;28;20859;-80
2023/11/05 14:45:46;;;;;;;4.13;1.20;;;;;;;;;;5107471;28;20550;-79
2023/11/05 14:48:14;;;;;;;3.17;1.20;;;;;;;;;;5105507;28;20518;-79
2023/11/05 14:50:43;;;;;;;3.93;1.17;;;;;;;;;;5105533;28;20455;-81
2023/11/05 14:53:20;;;;;;;3.17;1.20;;;;;;;;;;5086636;28;20515;-80
2023/11/05 14:55:50;;;;;;;3.03;1.40;;;;;;;;;;5084174;28;20933;-81
2023/11/05 14:58:24;;;;;;;3.90;1.27;;;;;;;;;;5084464;28;20445;-80
2023/11/05 15:00:54;;;;;;;5.17;1.73;;;;;;;;;;5085585;28;20443;-80
2023/11/05 15:03:21;;;;;;;4.20;2.00;;;;;;;;;;5083362;28;20553;-79
2023/11/05 15:05:53;;;;;;;3.83;1.60;;;;;;;;;;5083004;28;20452;-78
2023/11/05 15:08:31;;;;;;;5.27;2.00;;;;;;;;;;5085375;28;20683;-81
2023/11/05 15:10:59;;;;;;;5.03;2.67;;;;;;;;;;5084630;28;20448;-80
2023/11/05 15:13:29;;;;;;;2.70;1.50;;;;;;;;;;5083923;28;20480;-80
2023/11/05 15:15:57;;;;;;;3.50;1.70;;;;;;;;;;5083931;28;20475;-80
2023/11/05 15:18:25;;;;;;;2.73;1.30;;;;;;;;;;5083919;28;20433;-80
2023/11/05 15:20:53;;;;;;;3.27;1.83;;;;;;;;;;5084938;28;20843;-79
2023/11/05 15:23:20;;;;;;;2.73;1.30;;;;;;;;;;5102217;28;20569;-79
2023/11/05 15:25:56;;;;;;;4.10;1.90;;;;;;;;;;5122810;28;20454;-80
2023/11/05 15:28:26;;;;;;;6.10;2.20;;;;;;;;;;5128082;28;20445;-82
2023/11/05 15:30:57;;;;;;;4.50;2.60;;;;;;;;;;5128160;28;20567;-79
2023/11/05 15:33:38;;;;;;;7.50;2.20;;;;;;;;;;5128323;28;20517;-78
2023/11/05 15:36:06;;;;;;;2.70;1.23;;;;;;;;;;5127510;28;20487;-78
2023/11/05 15:38:34;;;;;;;4.37;2.20;;;;;;;;;;5122501;28;20446;-81
2023/11/05 15:41:03;;;;;;;3.40;1.90;;;;;;;;;;5126525;28;20469;-79
2023/11/05 15:43:32;;;;;;;5.20;2.40;;;;;;;;;;5149493;27;20438;-79
2023/11/05 15:46:03;;;;;;;6.20;3.50;;;;;;;;;;5150084;27;20452;-80
2023/11/05 15:48:32;;;;;;;3.80;1.77;;;;;;;;;;5148445;27;20464;-80
2023/11/05 15:51:02;;;;;;;4.30;2.57;;;;;;;;;;5142662;27;20491;-81
2023/11/05 15:53:30;;;;;;;4.10;2.23;;;;;;;;;;5146889;27;20496;-79
2023/11/05 15:56:02;;;;;;;6.03;3.37;;;;;;;;;;5145384;27;20442;-79
2023/11/05 15:58:32;;;;;;;6.83;2.90;;;;;;;;;;5142393;27;20502;-79
2023/11/05 16:01:01;;;;;;;7.33;3.57;;;;;;;;;;5143225;27;20446;-79
2023/11/05 16:03:32;;;;;;;8.03;4.03;;;;;;;;;;5141404;27;20575;-79
2023/11/05 16:06:02;;;;;;;5.30;3.80;;;;;;;;;;5142527;27;20481;-78
2023/11/05 16:08:31;;;;;;;4.60;2.90;;;;;;;;;;5140500;28;20483;-78